createdAt,value
2022-11-14T00:01:46.528Z,122.63
2022-11-14T00:07:07.306Z,125.40
2022-11-14T00:12:28.304Z,126.43
2022-11-14T00:17:49.272Z,132.73
2022-11-14T00:23:10.363Z,125.80
2022-11-14T00:28:31.583Z,132.07
2022-11-14T00:33:52.652Z,116.47
2022-11-14T00:39:14.366Z,132.03
2022-11-14T00:44:35.199Z,133.10
2022-11-14T00:49:56.229Z,122.27
2022-11-14T00:55:17.205Z,126.40
2022-11-14T01:00:38.606Z,114.77
2022-11-14T01:06:05.368Z,119.93
2022-11-14T01:11:26.502Z,116.37
2022-11-14T01:16:47.364Z,118.90
2022-11-14T01:22:08.439Z,119.63
2022-11-14T01:27:31.258Z,122.00
2022-11-14T01:32:52.455Z,132.10
2022-11-14T01:38:15.071Z,129.40
2022-11-14T01:43:40.019Z,137.40
2022-11-14T01:49:13.360Z,131.23
2022-11-14T01:54:38.724Z,127.67
2022-11-14T02:00:05.505Z,119.30
2022-11-14T02:05:27.042Z,125.63
2022-11-14T02:10:47.816Z,131.80
2022-11-14T02:16:08.757Z,141.37
2022-11-14T02:21:29.468Z,136.23
2022-11-14T02:26:50.636Z,140.17
2022-11-14T02:33:08.834Z,126.27
2022-11-14T02:38:21.284Z,135.77
2022-11-14T02:43:42.218Z,147.07
2022-11-14T02:49:03.251Z,150.83
2022-11-14T02:54:24.370Z,144.30
2022-11-14T02:59:44.992Z,143.53
2022-11-14T03:05:06.093Z,155.43
2022-11-14T03:10:27.031Z,144.13
2022-11-14T03:15:48.124Z,158.97
2022-11-14T03:21:15.093Z,140.80
2022-11-14T03:26:35.898Z,162.23
2022-11-14T03:31:56.987Z,147.40
2022-11-14T03:37:17.871Z,147.03
2022-11-14T03:42:38.782Z,151.57
2022-11-14T03:47:59.678Z,139.57
2022-11-14T03:53:20.822Z,142.27
2022-11-14T03:58:41.629Z,136.57
2022-11-14T04:04:04.287Z,141.43
2022-11-14T04:09:25.136Z,129.43
2022-11-14T04:14:46.012Z,137.20
2022-11-14T04:20:07.276Z,134.47
2022-11-14T04:25:28.121Z,152.87
2022-11-14T04:30:49.130Z,145.30
2022-11-14T04:36:10.169Z,140.83
2022-11-14T04:41:31.011Z,162.37
2022-11-14T04:46:52.044Z,151.57
2022-11-14T04:52:12.948Z,176.33
2022-11-14T04:57:33.887Z,148.43
2022-11-14T05:02:54.858Z,150.73
2022-11-14T05:08:15.868Z,139.97
2022-11-14T05:13:36.651Z,141.33
2022-11-14T05:18:57.723Z,141.90
2022-11-14T05:24:19.381Z,141.07
2022-11-14T05:29:40.175Z,129.10
2022-11-14T05:35:01.023Z,126.30
2022-11-14T05:40:22.193Z,123.93
2022-11-14T05:45:43.022Z,129.07
2022-11-14T05:51:05.564Z,117.03
2022-11-14T05:56:26.651Z,124.00
2022-11-14T06:01:47.471Z,132.77
2022-11-14T06:07:08.441Z,130.87
2022-11-14T06:12:29.144Z,125.37
2022-11-14T06:17:52.995Z,114.10
2022-11-14T06:23:14.126Z,130.53
2022-11-14T06:28:34.964Z,121.77
2022-11-14T06:33:56.957Z,110.20
2022-11-14T06:39:17.782Z,129.20
2022-11-14T06:44:38.776Z,119.80
2022-11-14T06:49:59.555Z,115.97
2022-11-14T06:55:25.111Z,124.57
2022-11-14T07:00:46.421Z,121.57
2022-11-14T07:06:08.492Z,126.97
2022-11-14T07:11:30.142Z,125.97
2022-11-14T07:16:50.851Z,124.03
2022-11-14T07:22:11.785Z,118.40
2022-11-14T07:27:32.675Z,116.13
2022-11-14T07:32:57.494Z,107.13
2022-11-14T07:38:18.363Z,113.30
2022-11-14T07:43:41.432Z,126.80
2022-11-14T07:49:01.999Z,126.07
2022-11-14T07:54:22.982Z,116.40
2022-11-14T07:59:43.912Z,117.73
2022-11-14T08:05:05.201Z,120.30
2022-11-14T08:10:28.618Z,117.03
2022-11-14T08:15:53.488Z,127.70
2022-11-14T08:21:14.277Z,127.03
2022-11-14T08:26:35.325Z,109.63
2022-11-14T08:31:59.969Z,112.30
2022-11-14T08:37:21.229Z,95.20
2022-11-14T08:42:42.146Z,115.13
2022-11-14T08:48:03.286Z,118.53
2022-11-14T08:53:24.420Z,120.40
2022-11-14T08:58:45.035Z,109.37
2022-11-14T09:04:05.985Z,104.27
2022-11-14T09:09:27.024Z,112.73
2022-11-14T09:14:48.047Z,93.83
2022-11-14T09:20:09.550Z,99.03
2022-11-14T09:25:31.338Z,96.57
2022-11-14T09:30:51.894Z,108.17
2022-11-14T09:36:15.945Z,95.80
2022-11-14T09:41:55.438Z,96.13
2022-11-14T09:47:22.392Z,87.63
2022-11-14T09:53:03.514Z,85.57
2022-11-14T09:58:24.493Z,81.20
2022-11-14T10:03:54.158Z,91.90
2022-11-14T10:09:48.576Z,91.50
2022-11-14T10:15:33.585Z,99.50
2022-11-14T10:20:58.290Z,82.73
2022-11-14T10:26:30.301Z,76.23
2022-11-14T10:32:00.188Z,74.77
2022-11-14T10:37:38.035Z,74.33
2022-11-14T10:43:24.134Z,65.57
2022-11-14T10:48:48.356Z,76.00
2022-11-14T10:54:30.477Z,72.93
2022-11-14T10:59:52.378Z,69.77
2022-11-14T11:05:18.424Z,68.53
2022-11-14T11:11:03.623Z,74.63
2022-11-14T11:16:26.261Z,76.73
2022-11-14T11:21:49.883Z,69.27
2022-11-14T11:27:20.937Z,69.20
2022-11-14T11:32:41.862Z,73.13
2022-11-14T11:38:05.370Z,72.87
2022-11-14T11:44:03.978Z,63.37
2022-11-14T11:49:54.959Z,68.90
2022-11-14T11:55:30.895Z,66.10
2022-11-14T12:00:55.549Z,69.70
2022-11-14T12:06:25.439Z,80.83
2022-11-14T12:11:54.478Z,59.43
2022-11-14T12:17:42.097Z,77.10
2022-11-14T12:23:36.755Z,63.13
2022-11-14T12:29:25.705Z,67.87
2022-11-14T12:34:47.894Z,67.80
2022-11-14T12:40:23.041Z,61.10
2022-11-14T12:45:43.888Z,58.07
2022-11-14T12:51:25.794Z,63.33
2022-11-14T12:57:00.280Z,63.80
2022-11-14T13:02:33.147Z,69.97
2022-11-14T13:08:12.506Z,53.37
2022-11-14T13:14:11.791Z,56.53
2022-11-14T13:19:51.113Z,51.47
2022-11-14T13:25:11.818Z,48.27
2022-11-14T13:31:10.485Z,51.87
2022-11-14T13:36:57.479Z,56.87
2022-11-14T13:42:21.231Z,69.87
2022-11-14T13:47:58.844Z,63.40
2022-11-14T13:53:26.190Z,53.23
2022-11-14T13:59:25.421Z,58.20
2022-11-14T14:05:04.703Z,52.33
2022-11-14T14:10:41.280Z,44.87
2022-11-14T14:16:13.607Z,51.70
2022-11-14T14:21:57.097Z,47.37
2022-11-14T14:27:23.234Z,58.10
2022-11-14T14:32:44.497Z,56.67
2022-11-14T14:38:11.791Z,66.20
2022-11-14T14:43:34.017Z,80.90
2022-11-14T14:48:55.336Z,82.27
2022-11-14T14:54:24.571Z,91.93
2022-11-14T14:59:45.824Z,95.43
2022-11-14T15:05:07.212Z,92.80
2022-11-14T15:10:30.732Z,85.43
2022-11-14T15:15:52.871Z,93.93
2022-11-14T15:21:27.364Z,134.93
2022-11-14T15:26:50.288Z,145.50
2022-11-14T15:32:23.343Z,155.43
2022-11-14T15:38:22.155Z,236.63
2022-11-14T15:43:44.735Z,220.17
2022-11-14T15:49:14.871Z,298.67
2022-11-14T15:54:37.807Z,212.43
2022-11-14T15:59:58.814Z,160.80
2022-11-14T16:05:25.117Z,157.47
2022-11-14T16:10:45.674Z,176.63
2022-11-14T16:16:06.687Z,183.43
2022-11-14T16:21:27.708Z,199.70
2022-11-14T16:26:49.211Z,155.50
2022-11-14T16:32:11.640Z,143.67
2022-11-14T16:37:32.858Z,135.63
2022-11-14T16:43:03.453Z,149.37
2022-11-14T16:48:24.006Z,144.83
2022-11-14T16:53:45.081Z,140.10
2022-11-14T16:59:06.417Z,117.43
2022-11-14T17:04:27.289Z,127.17
2022-11-14T17:09:48.180Z,116.73
2022-11-14T17:15:09.344Z,105.60
2022-11-14T17:20:30.037Z,111.83
2022-11-14T17:25:50.876Z,122.57
2022-11-14T17:31:12.103Z,109.47
2022-11-14T17:36:33.802Z,98.53
2022-11-14T17:41:54.496Z,108.53
2022-11-14T17:47:15.515Z,96.17
2022-11-14T17:52:36.366Z,97.97
2022-11-14T17:57:57.354Z,114.23
2022-11-14T18:03:18.355Z,97.07
2022-11-14T18:08:39.600Z,102.10
2022-11-14T18:14:00.449Z,120.10
2022-11-14T18:19:21.300Z,164.37
2022-11-14T18:24:47.249Z,169.23
2022-11-14T18:30:39.247Z,173.00
2022-11-14T18:36:00.041Z,183.50
2022-11-14T18:41:22.145Z,199.57
2022-11-14T18:46:42.936Z,203.37
2022-11-14T18:52:10.174Z,200.03
2022-11-14T18:57:34.035Z,159.17
2022-11-14T19:02:54.808Z,215.03
2022-11-14T19:08:18.432Z,141.60
2022-11-14T19:13:39.147Z,179.93
2022-11-14T19:19:00.938Z,224.97
2022-11-14T19:24:21.452Z,150.03
2022-11-14T19:29:42.424Z,154.97
2022-11-14T19:35:03.296Z,155.17
2022-11-14T19:40:24.140Z,163.00
2022-11-14T19:45:45.239Z,127.57
2022-11-14T19:51:09.635Z,123.47
2022-11-14T19:56:30.372Z,128.20
2022-11-14T20:01:55.352Z,138.17
2022-11-14T20:07:16.758Z,113.57
2022-11-14T20:12:37.634Z,122.13
2022-11-14T20:17:58.303Z,132.00
2022-11-14T20:23:19.205Z,127.57
2022-11-14T20:28:42.240Z,117.57
2022-11-14T20:34:03.200Z,140.87
2022-11-14T20:39:23.990Z,115.07
2022-11-14T20:44:45.028Z,116.07
2022-11-14T20:50:06.454Z,132.33
2022-11-14T20:55:27.290Z,167.73
2022-11-14T21:00:52.164Z,168.87
2022-11-14T21:06:14.544Z,173.20
2022-11-14T21:11:35.155Z,154.20
2022-11-14T21:16:56.331Z,134.17
2022-11-14T21:22:17.474Z,142.37
2022-11-14T21:27:38.447Z,147.87
2022-11-14T21:32:59.336Z,141.97
2022-11-14T21:38:20.414Z,135.57
2022-11-14T21:43:42.090Z,127.03
2022-11-14T21:49:03.084Z,119.47
2022-11-14T21:54:23.980Z,133.13
2022-11-14T21:59:44.883Z,128.63
2022-11-14T22:05:06.509Z,123.83
2022-11-14T22:10:27.448Z,154.93
2022-11-14T22:15:48.331Z,132.07
2022-11-14T22:21:09.235Z,136.57
2022-11-14T22:26:30.820Z,119.53
2022-11-14T22:31:53.056Z,116.00
2022-11-14T22:37:13.887Z,110.07
2022-11-14T22:42:34.735Z,110.80
2022-11-14T22:47:59.153Z,106.20
2022-11-14T22:53:20.319Z,101.30
2022-11-14T22:58:42.462Z,112.87
2022-11-14T23:04:05.420Z,129.63
2022-11-14T23:09:27.219Z,118.53
2022-11-14T23:14:48.005Z,109.00
2022-11-14T23:20:15.041Z,107.30
2022-11-14T23:25:37.804Z,109.40
2022-11-14T23:30:59.472Z,161.27
2022-11-14T23:36:21.145Z,177.80
2022-11-14T23:41:41.881Z,122.07
2022-11-14T23:47:02.839Z,93.87
2022-11-14T23:52:23.828Z,117.77
2022-11-14T23:57:44.918Z,81.97
